createdAt,value
2023-04-17T00:00:08.889Z,89.20
2023-04-17T00:03:17.142Z,89.10
2023-04-17T00:06:06.535Z,89.10
2023-04-17T00:08:54.518Z,89.47
2023-04-17T00:11:42.460Z,89.31
2023-04-17T00:14:30.324Z,89.69
2023-04-17T00:17:18.145Z,89.60
2023-04-17T00:20:10.269Z,89.84
2023-04-17T00:22:57.774Z,89.85
2023-04-17T00:25:45.731Z,89.94
2023-04-17T00:28:33.966Z,90.28
2023-04-17T00:31:22.155Z,90.34
2023-04-17T00:34:10.067Z,90.46
2023-04-17T00:36:59.258Z,91.06
2023-04-17T00:39:46.913Z,91.04
2023-04-17T00:42:34.689Z,91.43
2023-04-17T00:45:22.517Z,91.58
2023-04-17T00:48:11.284Z,91.85
2023-04-17T00:51:02.411Z,92.18
2023-04-17T00:53:50.498Z,93.13
2023-04-17T00:56:38.737Z,93.21
2023-04-17T00:59:28.226Z,93.65
2023-04-17T01:02:17.471Z,93.69
2023-04-17T01:05:06.040Z,93.78
2023-04-17T01:07:57.054Z,93.76
2023-04-17T01:10:44.986Z,94.37
2023-04-17T01:13:33.029Z,94.09
2023-04-17T01:16:20.870Z,94.33
2023-04-17T01:19:09.175Z,94.34
2023-04-17T01:21:57.767Z,94.68
2023-04-17T01:24:45.807Z,94.40
2023-04-17T01:27:35.328Z,94.43
2023-04-17T01:30:23.088Z,94.21
2023-04-17T01:33:21.890Z,94.53
2023-04-17T01:36:10.064Z,94.91
2023-04-17T01:38:58.024Z,95.08
2023-04-17T01:41:46.203Z,95.03
2023-04-17T01:44:33.750Z,94.71
2023-04-17T01:47:21.646Z,94.68
2023-04-17T01:50:11.021Z,94.90
2023-04-17T01:52:58.639Z,95.07
2023-04-17T01:55:46.528Z,95.62
2023-04-17T01:58:34.503Z,95.51
2023-04-17T02:01:22.116Z,95.38
2023-04-17T02:04:10.191Z,95.28
2023-04-17T02:06:58.693Z,95.47
2023-04-17T02:09:46.484Z,95.69
2023-04-17T02:12:34.327Z,95.47
2023-04-17T02:15:22.134Z,95.32
2023-04-17T02:18:10.168Z,95.34
2023-04-17T02:20:58.052Z,95.57
2023-04-17T02:23:45.890Z,95.78
2023-04-17T02:26:33.928Z,96.00
2023-04-17T02:29:21.905Z,95.66
2023-04-17T02:32:09.554Z,95.63
2023-04-17T02:34:57.393Z,95.53
2023-04-17T02:37:45.642Z,95.71
2023-04-17T02:40:33.466Z,95.74
2023-04-17T02:43:22.613Z,95.59
2023-04-17T02:46:10.677Z,95.90
2023-04-17T02:48:58.570Z,95.83
2023-04-17T02:51:46.382Z,95.54
2023-04-17T02:54:34.329Z,95.55
2023-04-17T02:57:23.535Z,95.97
2023-04-17T03:00:14.994Z,95.91
2023-04-17T03:03:03.497Z,95.66
2023-04-17T03:05:51.383Z,95.97
2023-04-17T03:08:39.442Z,96.03
2023-04-17T03:11:27.417Z,96.15
2023-04-17T03:14:15.864Z,96.15
2023-04-17T03:17:03.596Z,96.27
2023-04-17T03:19:51.627Z,96.45
2023-04-17T03:22:39.607Z,96.21
2023-04-17T03:25:32.673Z,96.57
2023-04-17T03:28:22.209Z,96.69
2023-04-17T03:31:11.134Z,96.85
2023-04-17T03:33:59.695Z,97.03
2023-04-17T03:36:48.457Z,96.70
2023-04-17T03:39:37.675Z,96.90
2023-04-17T03:42:27.420Z,96.65
2023-04-17T03:45:16.871Z,96.89
2023-04-17T03:48:05.170Z,96.80
2023-04-17T03:50:53.727Z,96.85
2023-04-17T03:53:41.569Z,96.73
2023-04-17T03:56:30.786Z,97.30
2023-04-17T03:59:19.327Z,97.20
2023-04-17T04:02:07.429Z,97.11
2023-04-17T04:04:56.502Z,97.32
2023-04-17T04:07:44.967Z,97.11
2023-04-17T04:10:32.866Z,97.00
2023-04-17T04:13:20.778Z,96.92
2023-04-17T04:16:15.846Z,96.84
2023-04-17T04:19:07.192Z,96.93
2023-04-17T04:21:56.164Z,96.29
2023-04-17T04:24:45.175Z,96.51
2023-04-17T04:27:33.876Z,96.26
2023-04-17T04:30:21.957Z,96.41
2023-04-17T04:33:11.422Z,96.77
2023-04-17T04:36:03.756Z,96.36
2023-04-17T04:38:52.777Z,96.24
2023-04-17T04:41:46.488Z,96.91
2023-04-17T04:44:34.705Z,96.38
2023-04-17T04:47:23.866Z,96.76
2023-04-17T04:50:11.854Z,96.99
2023-04-17T04:52:59.871Z,96.67
2023-04-17T04:56:00.436Z,96.20
2023-04-17T04:58:48.610Z,96.24
2023-04-17T05:01:37.503Z,96.18
2023-04-17T05:04:25.568Z,96.08
2023-04-17T05:07:15.698Z,96.02
2023-04-17T05:10:06.836Z,95.78
2023-04-17T05:12:56.931Z,95.57
2023-04-17T05:15:44.915Z,95.40
2023-04-17T05:18:33.239Z,94.76
2023-04-17T05:21:21.197Z,95.11
2023-04-17T05:24:10.557Z,95.05
2023-04-17T05:26:58.420Z,94.61
2023-04-17T05:29:46.248Z,94.92
2023-04-17T05:32:35.184Z,94.68
2023-04-17T05:35:49.390Z,94.26
2023-04-17T05:38:37.654Z,94.54
2023-04-17T05:41:30.796Z,94.69
2023-04-17T05:44:18.087Z,94.56
2023-04-17T05:47:06.314Z,94.09
2023-04-17T05:49:57.599Z,94.17
2023-04-17T05:52:48.390Z,94.10
2023-04-17T05:55:36.988Z,94.44
2023-04-17T05:58:26.550Z,94.03
2023-04-17T06:01:22.609Z,93.92
2023-04-17T06:04:13.171Z,93.54
2023-04-17T06:07:03.152Z,93.44
2023-04-17T06:09:51.004Z,92.78
2023-04-17T06:12:38.919Z,92.67
2023-04-17T06:15:28.598Z,92.46
2023-04-17T06:18:17.674Z,92.00
2023-04-17T06:21:09.739Z,91.68
2023-04-17T06:23:57.366Z,90.87
2023-04-17T06:26:45.167Z,90.69
2023-04-17T06:29:33.376Z,90.61
2023-04-17T06:32:21.865Z,90.41
2023-04-17T06:35:13.262Z,89.29
2023-04-17T06:38:05.576Z,88.90
2023-04-17T06:40:53.359Z,87.97
2023-04-17T06:43:41.129Z,88.15
2023-04-17T06:46:35.374Z,87.75
2023-04-17T06:49:25.235Z,86.26
2023-04-17T06:52:12.897Z,85.93
2023-04-17T06:55:00.635Z,85.85
2023-04-17T06:57:48.556Z,85.53
2023-04-17T07:00:36.439Z,84.91
2023-04-17T07:03:24.367Z,85.02
2023-04-17T07:06:12.766Z,85.28
2023-04-17T07:09:01.781Z,85.10
2023-04-17T07:11:49.995Z,83.98
2023-04-17T07:14:38.403Z,83.21
2023-04-17T07:17:27.457Z,83.54
2023-04-17T07:20:15.131Z,82.21
2023-04-17T07:23:02.656Z,81.38
2023-04-17T07:25:51.103Z,81.34
2023-04-17T07:28:40.012Z,80.84
2023-04-17T07:31:28.637Z,81.15
2023-04-17T07:34:17.862Z,80.55
2023-04-17T07:37:06.228Z,80.50
2023-04-17T07:39:54.133Z,80.59
2023-04-17T07:42:42.130Z,79.63
2023-04-17T07:45:30.384Z,79.80
2023-04-17T07:48:19.281Z,78.71
2023-04-17T07:51:07.874Z,79.01
2023-04-17T07:53:55.930Z,78.81
2023-04-17T07:56:46.734Z,78.28
2023-04-17T07:59:36.371Z,77.48
2023-04-17T08:02:24.172Z,77.08
2023-04-17T08:05:12.196Z,76.45
2023-04-17T08:08:02.368Z,76.65
2023-04-17T08:10:50.796Z,76.73
2023-04-17T08:13:38.762Z,76.62
2023-04-17T08:16:26.648Z,76.43
2023-04-17T08:19:14.685Z,76.50
2023-04-17T08:22:05.024Z,76.00
2023-04-17T08:24:58.067Z,76.82
2023-04-17T08:27:46.384Z,76.43
2023-04-17T08:30:38.716Z,76.31
2023-04-17T08:33:27.233Z,76.31
2023-04-17T08:36:15.093Z,75.46
2023-04-17T08:39:02.902Z,74.46
2023-04-17T08:42:07.380Z,74.05
2023-04-17T08:45:06.435Z,74.06
2023-04-17T08:47:54.231Z,74.40
2023-04-17T08:50:47.235Z,74.73
2023-04-17T08:53:35.031Z,75.24
2023-04-17T08:56:23.112Z,75.77
2023-04-17T08:59:11.111Z,75.49
2023-04-17T09:02:05.066Z,76.05
2023-04-17T09:04:53.140Z,76.06
2023-04-17T09:07:44.498Z,76.65
2023-04-17T09:10:46.777Z,76.87
2023-04-17T09:13:40.308Z,77.23
2023-04-17T09:16:29.257Z,77.38
2023-04-17T09:19:16.969Z,77.06
2023-04-17T09:22:23.264Z,77.03
2023-04-17T09:25:23.308Z,77.69
2023-04-17T09:28:14.870Z,78.70
2023-04-17T09:31:18.666Z,79.00
2023-04-17T09:34:08.868Z,79.65
2023-04-17T09:36:56.886Z,80.38
2023-04-17T09:40:02.261Z,80.46
2023-04-17T09:43:01.304Z,81.05
2023-04-17T09:45:49.010Z,81.31
2023-04-17T09:48:36.851Z,81.33
2023-04-17T09:51:26.395Z,81.13
2023-04-17T09:54:16.181Z,80.86
2023-04-17T09:57:08.595Z,80.13
2023-04-17T10:00:01.423Z,80.82
2023-04-17T10:02:52.616Z,80.74
2023-04-17T10:05:40.530Z,79.71
2023-04-17T10:08:28.922Z,78.66
2023-04-17T10:11:16.824Z,79.10
2023-04-17T10:14:20.845Z,78.82
2023-04-17T10:17:32.504Z,77.76
2023-04-17T10:20:23.244Z,78.07
2023-04-17T10:23:36.232Z,78.22
2023-04-17T10:26:29.953Z,77.55
2023-04-17T10:29:18.364Z,77.30
2023-04-17T10:32:16.343Z,76.81
2023-04-17T10:35:16.148Z,76.62
2023-04-17T10:38:08.950Z,74.12
2023-04-17T10:40:58.101Z,74.50
2023-04-17T10:43:47.333Z,72.64
2023-04-17T10:46:47.883Z,72.53
2023-04-17T10:49:56.036Z,72.79
2023-04-17T10:52:45.572Z,72.13
2023-04-17T10:55:33.640Z,70.21
2023-04-17T10:58:22.032Z,66.78
2023-04-17T11:01:19.938Z,66.89
2023-04-17T11:04:09.379Z,65.38
2023-04-17T11:06:57.658Z,64.65
2023-04-17T11:09:52.010Z,63.81
2023-04-17T11:12:39.875Z,62.97
2023-04-17T11:15:34.087Z,62.30
2023-04-17T11:18:22.512Z,62.60
2023-04-17T11:21:13.183Z,63.11
2023-04-17T11:24:03.359Z,62.20
2023-04-17T11:26:51.586Z,62.79
2023-04-17T11:29:39.044Z,64.03
2023-04-17T11:32:27.405Z,64.14
2023-04-17T11:35:14.827Z,64.17
2023-04-17T11:38:14.585Z,64.89
2023-04-17T11:41:02.990Z,64.43
2023-04-17T11:43:52.091Z,65.13
2023-04-17T11:46:40.066Z,65.03
2023-04-17T11:49:29.587Z,64.63
2023-04-17T11:52:17.994Z,64.59
2023-04-17T11:55:09.113Z,64.28
2023-04-17T11:58:02.439Z,63.85
2023-04-17T12:01:06.575Z,63.97
2023-04-17T12:03:59.786Z,63.70
2023-04-17T12:06:47.594Z,64.32
2023-04-17T12:09:36.703Z,64.63
2023-04-17T12:12:24.638Z,65.07
2023-04-17T12:15:12.520Z,64.45
2023-04-17T12:18:00.277Z,64.86
2023-04-17T12:20:48.709Z,65.13
2023-04-17T12:23:36.798Z,64.87
2023-04-17T12:26:28.632Z,65.08
2023-04-17T12:29:17.695Z,64.75
2023-04-17T12:32:05.786Z,64.26
2023-04-17T12:34:53.376Z,64.43
2023-04-17T12:37:42.511Z,65.91
2023-04-17T12:40:30.502Z,66.51
2023-04-17T12:43:18.564Z,67.06
2023-04-17T12:46:06.131Z,66.91
2023-04-17T12:48:59.342Z,67.01
2023-04-17T12:51:47.400Z,66.09
2023-04-17T12:54:35.549Z,66.14
2023-04-17T12:57:23.021Z,65.72
2023-04-17T13:00:11.338Z,65.61
2023-04-17T13:02:59.510Z,66.03
2023-04-17T13:05:49.724Z,66.45
2023-04-17T13:08:37.554Z,67.19
2023-04-17T13:11:25.952Z,67.28
2023-04-17T13:14:15.370Z,68.13
2023-04-17T13:17:03.385Z,68.54
2023-04-17T13:19:52.050Z,68.96
2023-04-17T13:22:40.256Z,69.55
2023-04-17T13:25:29.601Z,70.25
2023-04-17T13:28:17.186Z,70.30
2023-04-17T13:31:05.223Z,70.10
2023-04-17T13:33:53.148Z,70.39
2023-04-17T13:36:42.241Z,70.49
2023-04-17T13:39:30.376Z,70.21
2023-04-17T13:42:19.972Z,70.34
2023-04-17T13:45:08.737Z,70.47
2023-04-17T13:47:56.533Z,69.50
2023-04-17T13:50:44.302Z,68.99
2023-04-17T13:53:32.106Z,68.57
2023-04-17T13:56:23.611Z,69.09
2023-04-17T13:59:12.061Z,68.86
2023-04-17T14:02:04.142Z,69.02
2023-04-17T14:04:52.544Z,69.05
2023-04-17T14:07:40.850Z,69.00
2023-04-17T14:10:28.548Z,68.52
2023-04-17T14:13:16.750Z,68.67
2023-04-17T14:16:06.007Z,68.61
2023-04-17T14:18:53.979Z,69.08
2023-04-17T14:21:42.027Z,68.73
2023-04-17T14:24:30.102Z,68.51
2023-04-17T14:27:17.910Z,68.14
2023-04-17T14:30:19.423Z,68.47
2023-04-17T14:33:25.291Z,68.84
2023-04-17T14:36:30.158Z,69.43
2023-04-17T14:39:36.006Z,70.09
2023-04-17T14:42:23.935Z,70.08
2023-04-17T14:45:13.329Z,70.30
2023-04-17T14:48:01.343Z,70.40
2023-04-17T14:50:50.505Z,70.15
2023-04-17T14:53:38.242Z,71.08
2023-04-17T14:56:28.731Z,71.21
2023-04-17T14:59:16.343Z,71.44
2023-04-17T15:02:07.491Z,71.30
2023-04-17T15:04:55.681Z,72.04
2023-04-17T15:07:43.704Z,72.40
2023-04-17T15:10:40.505Z,72.27
2023-04-17T15:13:36.066Z,72.28
2023-04-17T15:16:23.601Z,71.97
2023-04-17T15:19:11.956Z,72.45
2023-04-17T15:21:59.888Z,72.57
2023-04-17T15:24:47.669Z,73.11
2023-04-17T15:27:35.504Z,73.52
2023-04-17T15:30:23.283Z,73.87
2023-04-17T15:33:12.740Z,74.15
2023-04-17T15:36:02.649Z,74.26
2023-04-17T15:38:50.549Z,74.62
2023-04-17T15:41:41.433Z,74.97
2023-04-17T15:44:29.995Z,75.13
2023-04-17T15:47:17.588Z,75.25
2023-04-17T15:50:06.012Z,75.71
2023-04-17T15:52:53.539Z,75.48
2023-04-17T15:55:43.840Z,75.82
2023-04-17T15:58:31.686Z,76.19
2023-04-17T16:01:19.485Z,76.51
2023-04-17T16:04:07.284Z,76.79
2023-04-17T16:06:55.611Z,77.17
2023-04-17T16:09:44.718Z,77.73
2023-04-17T16:12:32.274Z,78.19
2023-04-17T16:15:19.906Z,78.37
2023-04-17T16:18:08.293Z,78.80
2023-04-17T16:20:55.935Z,79.29
2023-04-17T16:23:45.933Z,79.27
2023-04-17T16:26:33.768Z,79.60
2023-04-17T16:29:22.349Z,79.43
2023-04-17T16:32:12.043Z,79.13
2023-04-17T16:34:59.629Z,80.08
2023-04-17T16:37:47.337Z,79.54
2023-04-17T16:40:35.097Z,78.15
2023-04-17T16:43:23.445Z,78.10
2023-04-17T16:46:22.213Z,77.80
2023-04-17T16:49:16.482Z,77.64
2023-04-17T16:52:05.675Z,77.11
2023-04-17T16:54:53.642Z,77.21
2023-04-17T16:57:43.899Z,77.09
2023-04-17T17:00:32.257Z,77.16
2023-04-17T17:03:19.746Z,77.32
2023-04-17T17:06:07.546Z,77.65
2023-04-17T17:08:55.555Z,77.77
2023-04-17T17:11:43.112Z,77.57
2023-04-17T17:14:30.913Z,77.48
2023-04-17T17:17:19.843Z,77.72
2023-04-17T17:20:08.983Z,77.69
2023-04-17T17:22:56.838Z,78.04
2023-04-17T17:28:37.494Z,78.35
2023-04-17T17:31:24.594Z,78.35
2023-04-17T17:34:25.407Z,78.45
2023-04-17T17:37:13.132Z,78.46
2023-04-17T17:40:00.115Z,78.91
2023-04-17T17:42:47.219Z,79.50
2023-04-17T17:45:33.926Z,79.71
2023-04-17T17:48:20.952Z,80.22
2023-04-17T17:51:08.085Z,80.66
2023-04-17T17:53:57.424Z,81.41
2023-04-17T17:56:45.590Z,82.07
2023-04-17T17:59:32.533Z,82.33
2023-04-17T18:02:19.499Z,82.54
2023-04-17T18:05:06.541Z,82.97
2023-04-17T18:07:53.440Z,83.06
2023-04-17T18:10:40.050Z,83.63
2023-04-17T18:13:26.932Z,83.87
2023-04-17T18:16:13.965Z,83.72
2023-04-17T18:19:03.273Z,83.82
2023-04-17T18:21:49.419Z,83.84
2023-04-17T18:24:37.360Z,84.17
2023-04-17T18:27:27.393Z,84.21
2023-04-17T18:30:16.250Z,84.04
2023-04-17T18:33:04.894Z,84.43
2023-04-17T18:35:53.602Z,84.58
2023-04-17T18:38:40.866Z,84.42
2023-04-17T18:41:29.690Z,85.38
2023-04-17T18:44:17.241Z,85.08
2023-04-17T18:47:03.454Z,85.13
2023-04-17T18:49:53.112Z,85.48
2023-04-17T18:52:47.635Z,86.06
2023-04-17T18:55:37.820Z,86.32
2023-04-17T18:58:24.253Z,86.60
2023-04-17T19:01:11.082Z,87.01
2023-04-17T19:03:58.042Z,87.52
2023-04-17T19:06:47.955Z,87.59
2023-04-17T19:09:37.413Z,87.95
2023-04-17T19:12:23.784Z,88.44
2023-04-17T19:15:11.919Z,88.82
2023-04-17T19:18:09.315Z,89.17
2023-04-17T19:20:56.472Z,89.41
2023-04-17T19:23:43.497Z,89.66
2023-04-17T19:26:33.140Z,90.28
2023-04-17T19:29:23.288Z,90.61
2023-04-17T19:32:14.353Z,90.73
2023-04-17T19:35:04.457Z,91.25
2023-04-17T19:37:52.661Z,91.53
2023-04-17T19:40:40.091Z,91.71
2023-04-17T19:43:27.181Z,91.94
2023-04-17T19:46:14.230Z,92.37
2023-04-17T19:49:01.659Z,92.72
2023-04-17T19:51:50.101Z,92.71
2023-04-17T19:54:36.441Z,92.74
2023-04-17T19:57:23.163Z,92.69
2023-04-17T20:00:12.527Z,92.85
2023-04-17T20:03:04.066Z,93.05
2023-04-17T20:05:50.900Z,93.52
2023-04-17T20:08:37.209Z,93.36
2023-04-17T20:11:24.595Z,93.70
2023-04-17T20:14:14.076Z,93.69
2023-04-17T20:17:00.328Z,93.85
2023-04-17T20:19:46.861Z,93.92
2023-04-17T20:22:33.270Z,93.77
2023-04-17T20:25:20.011Z,94.01
2023-04-17T20:28:07.207Z,93.83
2023-04-17T20:30:55.403Z,93.75
2023-04-17T20:33:43.167Z,93.96
2023-04-17T20:36:29.681Z,93.49
2023-04-17T20:39:16.332Z,93.47
2023-04-17T20:42:03.074Z,93.57
2023-04-17T20:44:50.634Z,93.39
2023-04-17T20:47:55.354Z,93.62
2023-04-17T20:50:43.960Z,93.80
2023-04-17T20:53:30.550Z,93.64
2023-04-17T20:56:17.085Z,93.36
2023-04-17T20:59:03.290Z,93.64
2023-04-17T21:01:52.286Z,93.36
2023-04-17T21:04:40.833Z,93.69
2023-04-17T21:07:27.154Z,93.53
2023-04-17T21:10:13.818Z,93.23
2023-04-17T21:13:00.490Z,93.02
2023-04-17T21:15:48.157Z,92.84
2023-04-17T21:18:34.756Z,92.79
2023-04-17T21:21:20.922Z,93.13
2023-04-17T21:24:08.512Z,92.81
2023-04-17T21:27:00.945Z,92.93
2023-04-17T21:29:47.746Z,92.70
2023-04-17T21:32:34.747Z,92.41
2023-04-17T21:35:21.670Z,92.26
2023-04-17T21:38:13.217Z,92.33
2023-04-17T21:41:08.424Z,92.17
2023-04-17T21:43:57.859Z,92.32
2023-04-17T21:46:45.614Z,92.25
2023-04-17T21:49:32.394Z,92.29
2023-04-17T21:52:19.098Z,91.87
2023-04-17T21:55:08.042Z,92.39
2023-04-17T21:57:54.334Z,92.18
2023-04-17T22:00:41.775Z,92.11
2023-04-17T22:03:28.351Z,92.08
2023-04-17T22:06:15.254Z,92.29
2023-04-17T22:09:04.210Z,92.23
2023-04-17T22:11:50.457Z,92.31
2023-04-17T22:14:37.560Z,92.56
2023-04-17T22:17:25.169Z,92.03
2023-04-17T22:20:13.566Z,92.21
2023-04-17T22:23:00.362Z,92.13
2023-04-17T22:25:48.415Z,92.09
2023-04-17T22:28:34.955Z,92.01
2023-04-17T22:31:21.665Z,92.11
2023-04-17T22:34:08.361Z,92.06
2023-04-17T22:36:54.806Z,92.28
2023-04-17T22:39:41.567Z,91.97
2023-04-17T22:42:28.483Z,92.49
2023-04-17T22:45:15.427Z,92.46
2023-04-17T22:48:02.486Z,92.83
2023-04-17T22:50:49.814Z,92.71
2023-04-17T22:53:37.985Z,92.78
2023-04-17T22:56:24.550Z,92.94
2023-04-17T22:59:11.393Z,92.76
2023-04-17T23:01:58.442Z,93.06
2023-04-17T23:04:45.963Z,93.12
2023-04-17T23:07:32.716Z,93.19
2023-04-17T23:10:21.425Z,93.20
2023-04-17T23:13:07.726Z,93.46
2023-04-17T23:15:54.409Z,93.45
2023-04-17T23:18:41.307Z,93.71
2023-04-17T23:21:27.796Z,94.08
2023-04-17T23:24:16.082Z,94.16
2023-04-17T23:27:02.518Z,93.98
2023-04-17T23:29:49.138Z,94.14
2023-04-17T23:32:35.776Z,94.26
2023-04-17T23:35:22.446Z,94.19
2023-04-17T23:38:10.160Z,94.41
2023-04-17T23:40:56.815Z,94.35
2023-04-17T23:43:42.886Z,94.40
2023-04-17T23:46:29.337Z,94.60
2023-04-17T23:49:16.156Z,94.82
2023-04-17T23:52:03.186Z,94.81
2023-04-17T23:54:50.106Z,94.70
2023-04-17T23:57:37.380Z,94.90
